< < Back
Terminal Aerodrome Forecast


Current Version              Previous Versions:   1  2  3  4  5  6  7  8  9  

Terminal Aerodrome Forecast

878
FTUS42 KTAE 262300
TAFDHN
TAF
KDHN 262334Z 2700/2724 30008KT P6SM SKC
     FM271400 33015G20KT P6SM SKC=

Latest METAR

698
SAUS70 KWBC 271000 RRE
MTRDHN
METAR KDHN 270953Z AUTO 27004KT 10SM CLR 07/04 A3026 RMK AO2 SLP244
T00670039


USA.gov is the U.S. government's official web portal to all federal, state and local government web resources and services.